sensor_id;sensor_type;location;lat;lon;timestamp;P1;durP1;ratioP1;P2;durP2;ratioP2
71106;SDS011;58763;47.982;11.516;2023-04-24T00:02:22;1.90;;;0.60;;
71106;SDS011;58763;47.982;11.516;2023-04-24T00:04:49;2.67;;;0.60;;
71106;SDS011;58763;47.982;11.516;2023-04-24T00:07:14;1.95;;;0.73;;
71106;SDS011;58763;47.982;11.516;2023-04-24T00:09:42;1.95;;;0.63;;
71106;SDS011;58763;47.982;11.516;2023-04-24T00:12:08;2.10;;;0.55;;
71106;SDS011;58763;47.982;11.516;2023-04-24T00:14:34;1.60;;;0.60;;
71106;SDS011;58763;47.982;11.516;2023-04-24T00:17:00;1.48;;;0.50;;
71106;SDS011;58763;47.982;11.516;2023-04-24T00:19:27;1.33;;;0.50;;
71106;SDS011;58763;47.982;11.516;2023-04-24T00:21:53;1.42;;;0.57;;
71106;SDS011;58763;47.982;11.516;2023-04-24T00:24:19;1.63;;;0.60;;
71106;SDS011;58763;47.982;11.516;2023-04-24T00:26:45;2.15;;;0.70;;
71106;SDS011;58763;47.982;11.516;2023-04-24T00:29:11;1.40;;;0.50;;
71106;SDS011;58763;47.982;11.516;2023-04-24T00:31:36;1.65;;;0.50;;
71106;SDS011;58763;47.982;11.516;2023-04-24T00:34:02;1.60;;;0.50;;
71106;SDS011;58763;47.982;11.516;2023-04-24T00:36:28;0.80;;;0.30;;
71106;SDS011;58763;47.982;11.516;2023-04-24T00:38:54;1.75;;;0.40;;
71106;SDS011;58763;47.982;11.516;2023-04-24T00:41:20;1.40;;;0.40;;
71106;SDS011;58763;47.982;11.516;2023-04-24T00:43:46;1.05;;;0.45;;
71106;SDS011;58763;47.982;11.516;2023-04-24T00:46:12;1.30;;;0.50;;
71106;SDS011;58763;47.982;11.516;2023-04-24T00:48:39;0.98;;;0.32;;
71106;SDS011;58763;47.982;11.516;2023-04-24T00:51:04;0.90;;;0.40;;
71106;SDS011;58763;47.982;11.516;2023-04-24T00:53:30;0.77;;;0.40;;
71106;SDS011;58763;47.982;11.516;2023-04-24T00:55:56;1.08;;;0.40;;
71106;SDS011;58763;47.982;11.516;2023-04-24T00:58:22;1.10;;;0.47;;
71106;SDS011;58763;47.982;11.516;2023-04-24T01:00:48;0.95;;;0.40;;
71106;SDS011;58763;47.982;11.516;2023-04-24T01:03:15;1.30;;;0.40;;
71106;SDS011;58763;47.982;11.516;2023-04-24T01:05:41;1.20;;;0.43;;
71106;SDS011;58763;47.982;11.516;2023-04-24T01:08:07;1.75;;;0.40;;
71106;SDS011;58763;47.982;11.516;2023-04-24T01:10:33;0.95;;;0.40;;
71106;SDS011;58763;47.982;11.516;2023-04-24T01:13:01;1.60;;;0.50;;
71106;SDS011;58763;47.982;11.516;2023-04-24T01:15:26;1.05;;;0.40;;
71106;SDS011;58763;47.982;11.516;2023-04-24T01:17:52;2.08;;;0.40;;
71106;SDS011;58763;47.982;11.516;2023-04-24T01:20:17;0.90;;;0.30;;
71106;SDS011;58763;47.982;11.516;2023-04-24T01:22:44;2.10;;;0.40;;
71106;SDS011;58763;47.982;11.516;2023-04-24T01:25:09;1.27;;;0.40;;
71106;SDS011;58763;47.982;11.516;2023-04-24T01:27:35;1.13;;;0.40;;
71106;SDS011;58763;47.982;11.516;2023-04-24T01:30:00;1.45;;;0.35;;
71106;SDS011;58763;47.982;11.516;2023-04-24T01:32:26;1.58;;;0.40;;
71106;SDS011;58763;47.982;11.516;2023-04-24T01:34:52;1.40;;;0.30;;
71106;SDS011;58763;47.982;11.516;2023-04-24T01:37:20;1.15;;;0.38;;
71106;SDS011;58763;47.982;11.516;2023-04-24T01:39:45;1.55;;;0.30;;
71106;SDS011;58763;47.982;11.516;2023-04-24T01:42:11;1.13;;;0.30;;
71106;SDS011;58763;47.982;11.516;2023-04-24T01:44:38;0.45;;;0.28;;
71106;SDS011;58763;47.982;11.516;2023-04-24T01:47:04;0.57;;;0.32;;
71106;SDS011;58763;47.982;11.516;2023-04-24T01:49:30;1.05;;;0.40;;
71106;SDS011;58763;47.982;11.516;2023-04-24T01:51:57;0.85;;;0.40;;
71106;SDS011;58763;47.982;11.516;2023-04-24T01:54:23;1.25;;;0.40;;
71106;SDS011;58763;47.982;11.516;2023-04-24T01:56:48;1.85;;;0.40;;
71106;SDS011;58763;47.982;11.516;2023-04-24T01:59:14;0.90;;;0.30;;
71106;SDS011;58763;47.982;11.516;2023-04-24T02:01:42;0.98;;;0.40;;
71106;SDS011;58763;47.982;11.516;2023-04-24T02:04:07;0.47;;;0.30;;
71106;SDS011;58763;47.982;11.516;2023-04-24T02:06:33;1.15;;;0.30;;
71106;SDS011;58763;47.982;11.516;2023-04-24T02:08:58;0.50;;;0.20;;
71106;SDS011;58763;47.982;11.516;2023-04-24T02:11:24;1.67;;;0.40;;
71106;SDS011;58763;47.982;11.516;2023-04-24T02:13:50;1.15;;;0.40;;
71106;SDS011;58763;47.982;11.516;2023-04-24T02:16:16;1.13;;;0.40;;
71106;SDS011;58763;47.982;11.516;2023-04-24T02:18:42;0.50;;;0.30;;
71106;SDS011;58763;47.982;11.516;2023-04-24T02:21:08;1.50;;;0.45;;
71106;SDS011;58763;47.982;11.516;2023-04-24T02:23:34;0.60;;;0.30;;
71106;SDS011;58763;47.982;11.516;2023-04-24T02:25:59;0.77;;;0.35;;
71106;SDS011;58763;47.982;11.516;2023-04-24T02:28:25;1.35;;;0.40;;
71106;SDS011;58763;47.982;11.516;2023-04-24T02:30:50;0.70;;;0.30;;
71106;SDS011;58763;47.982;11.516;2023-04-24T02:33:16;0.93;;;0.40;;
71106;SDS011;58763;47.982;11.516;2023-04-24T02:35:42;1.20;;;0.38;;
71106;SDS011;58763;47.982;11.516;2023-04-24T02:38:07;1.88;;;0.50;;
71106;SDS011;58763;47.982;11.516;2023-04-24T02:40:33;1.15;;;0.40;;
71106;SDS011;58763;47.982;11.516;2023-04-24T02:42:58;0.82;;;0.35;;
71106;SDS011;58763;47.982;11.516;2023-04-24T02:45:24;0.85;;;0.38;;
71106;SDS011;58763;47.982;11.516;2023-04-24T02:47:49;1.17;;;0.30;;
71106;SDS011;58763;47.982;11.516;2023-04-24T02:50:15;1.00;;;0.30;;
71106;SDS011;58763;47.982;11.516;2023-04-24T02:52:40;1.10;;;0.30;;
71106;SDS011;58763;47.982;11.516;2023-04-24T02:55:06;0.65;;;0.35;;
71106;SDS011;58763;47.982;11.516;2023-04-24T02:57:33;0.80;;;0.40;;
71106;SDS011;58763;47.982;11.516;2023-04-24T02:59:59;0.68;;;0.40;;
71106;SDS011;58763;47.982;11.516;2023-04-24T03:02:24;0.95;;;0.40;;
71106;SDS011;58763;47.982;11.516;2023-04-24T03:04:50;1.38;;;0.40;;
71106;SDS011;58763;47.982;11.516;2023-04-24T03:07:16;1.25;;;0.40;;
71106;SDS011;58763;47.982;11.516;2023-04-24T03:09:41;1.27;;;0.30;;
71106;SDS011;58763;47.982;11.516;2023-04-24T03:12:07;0.68;;;0.30;;
71106;SDS011;58763;47.982;11.516;2023-04-24T03:14:32;1.13;;;0.43;;
71106;SDS011;58763;47.982;11.516;2023-04-24T03:16:58;0.90;;;0.40;;
71106;SDS011;58763;47.982;11.516;2023-04-24T03:19:23;2.17;;;0.50;;
71106;SDS011;58763;47.982;11.516;2023-04-24T03:21:49;1.05;;;0.47;;
71106;SDS011;58763;47.982;11.516;2023-04-24T03:24:15;1.42;;;0.50;;
71106;SDS011;58763;47.982;11.516;2023-04-24T03:26:40;0.70;;;0.30;;
71106;SDS011;58763;47.982;11.516;2023-04-24T03:29:06;1.10;;;0.50;;
71106;SDS011;58763;47.982;11.516;2023-04-24T03:31:31;1.23;;;0.45;;
71106;SDS011;58763;47.982;11.516;2023-04-24T03:33:57;1.73;;;0.80;;
71106;SDS011;58763;47.982;11.516;2023-04-24T03:36:22;1.90;;;0.68;;
71106;SDS011;58763;47.982;11.516;2023-04-24T03:38:47;1.25;;;0.63;;
71106;SDS011;58763;47.982;11.516;2023-04-24T03:41:13;3.00;;;0.60;;
71106;SDS011;58763;47.982;11.516;2023-04-24T03:43:38;1.88;;;0.70;;
71106;SDS011;58763;47.982;11.516;2023-04-24T03:46:04;2.17;;;0.93;;
71106;SDS011;58763;47.982;11.516;2023-04-24T03:48:30;4.50;;;1.00;;
71106;SDS011;58763;47.982;11.516;2023-04-24T03:50:55;2.08;;;0.80;;
71106;SDS011;58763;47.982;11.516;2023-04-24T03:53:21;2.20;;;0.80;;
71106;SDS011;58763;47.982;11.516;2023-04-24T03:55:46;2.33;;;0.70;;
71106;SDS011;58763;47.982;11.516;2023-04-24T03:58:12;2.10;;;0.70;;
71106;SDS011;58763;47.982;11.516;2023-04-24T04:00:39;2.20;;;0.77;;
71106;SDS011;58763;47.982;11.516;2023-04-24T04:03:05;1.45;;;0.55;;
71106;SDS011;58763;47.982;11.516;2023-04-24T04:05:31;0.98;;;0.40;;
71106;SDS011;58763;47.982;11.516;2023-04-24T04:07:56;1.08;;;0.40;;
71106;SDS011;58763;47.982;11.516;2023-04-24T04:10:22;1.05;;;0.30;;
71106;SDS011;58763;47.982;11.516;2023-04-24T04:12:47;1.23;;;0.40;;
71106;SDS011;58763;47.982;11.516;2023-04-24T04:15:13;0.95;;;0.40;;
71106;SDS011;58763;47.982;11.516;2023-04-24T04:17:38;2.45;;;0.50;;
71106;SDS011;58763;47.982;11.516;2023-04-24T04:20:04;0.85;;;0.40;;
71106;SDS011;58763;47.982;11.516;2023-04-24T04:22:34;0.57;;;0.40;;
71106;SDS011;58763;47.982;11.516;2023-04-24T04:25:00;1.27;;;0.60;;
71106;SDS011;58763;47.982;11.516;2023-04-24T04:27:25;0.90;;;0.38;;
71106;SDS011;58763;47.982;11.516;2023-04-24T04:29:51;1.38;;;0.50;;
71106;SDS011;58763;47.982;11.516;2023-04-24T04:32:17;0.98;;;0.57;;
71106;SDS011;58763;47.982;11.516;2023-04-24T04:34:43;1.92;;;0.40;;
71106;SDS011;58763;47.982;11.516;2023-04-24T04:37:10;2.53;;;0.70;;
71106;SDS011;58763;47.982;11.516;2023-04-24T04:39:37;1.85;;;0.80;;
71106;SDS011;58763;47.982;11.516;2023-04-24T04:42:03;1.85;;;0.75;;
71106;SDS011;58763;47.982;11.516;2023-04-24T04:44:29;2.03;;;0.90;;
71106;SDS011;58763;47.982;11.516;2023-04-24T04:46:57;1.80;;;0.60;;
71106;SDS011;58763;47.982;11.516;2023-04-24T04:49:24;1.65;;;0.60;;
71106;SDS011;58763;47.982;11.516;2023-04-24T04:51:49;1.83;;;0.50;;
71106;SDS011;58763;47.982;11.516;2023-04-24T04:54:16;1.92;;;0.50;;
71106;SDS011;58763;47.982;11.516;2023-04-24T04:56:41;1.67;;;0.50;;
71106;SDS011;58763;47.982;11.516;2023-04-24T04:59:07;1.63;;;0.45;;
71106;SDS011;58763;47.982;11.516;2023-04-24T05:01:32;1.50;;;0.55;;
71106;SDS011;58763;47.982;11.516;2023-04-24T05:03:58;1.13;;;0.50;;
71106;SDS011;58763;47.982;11.516;2023-04-24T05:06:23;1.85;;;0.45;;
71106;SDS011;58763;47.982;11.516;2023-04-24T05:08:49;1.40;;;0.60;;
71106;SDS011;58763;47.982;11.516;2023-04-24T05:11:15;0.90;;;0.40;;
71106;SDS011;58763;47.982;11.516;2023-04-24T05:13:40;0.80;;;0.40;;
71106;SDS011;58763;47.982;11.516;2023-04-24T05:16:06;1.67;;;0.40;;
71106;SDS011;58763;47.982;11.516;2023-04-24T05:18:31;2.45;;;0.57;;
71106;SDS011;58763;47.982;11.516;2023-04-24T05:20:57;1.10;;;0.50;;
71106;SDS011;58763;47.982;11.516;2023-04-24T05:23:22;0.93;;;0.40;;
71106;SDS011;58763;47.982;11.516;2023-04-24T05:25:48;1.48;;;0.40;;
71106;SDS011;58763;47.982;11.516;2023-04-24T05:28:13;1.00;;;0.30;;
71106;SDS011;58763;47.982;11.516;2023-04-24T05:30:40;1.75;;;0.40;;
71106;SDS011;58763;47.982;11.516;2023-04-24T05:33:05;1.85;;;0.50;;
71106;SDS011;58763;47.982;11.516;2023-04-24T05:35:31;2.25;;;0.40;;
71106;SDS011;58763;47.982;11.516;2023-04-24T05:37:56;1.50;;;0.50;;
71106;SDS011;58763;47.982;11.516;2023-04-24T05:40:22;0.93;;;0.43;;
71106;SDS011;58763;47.982;11.516;2023-04-24T05:42:47;1.30;;;0.40;;
71106;SDS011;58763;47.982;11.516;2023-04-24T05:45:13;1.80;;;0.40;;
71106;SDS011;58763;47.982;11.516;2023-04-24T05:47:42;0.93;;;0.40;;
71106;SDS011;58763;47.982;11.516;2023-04-24T05:50:09;1.08;;;0.47;;
71106;SDS011;58763;47.982;11.516;2023-04-24T05:52:35;1.92;;;0.50;;
71106;SDS011;58763;47.982;11.516;2023-04-24T05:55:01;1.42;;;0.40;;
71106;SDS011;58763;47.982;11.516;2023-04-24T05:57:26;0.50;;;0.30;;
71106;SDS011;58763;47.982;11.516;2023-04-24T05:59:52;0.80;;;0.30;;
71106;SDS011;58763;47.982;11.516;2023-04-24T06:02:17;0.75;;;0.40;;
71106;SDS011;58763;47.982;11.516;2023-04-24T06:04:43;0.70;;;0.30;;
71106;SDS011;58763;47.982;11.516;2023-04-24T06:07:10;0.70;;;0.30;;
71106;SDS011;58763;47.982;11.516;2023-04-24T06:09:36;1.13;;;0.47;;
71106;SDS011;58763;47.982;11.516;2023-04-24T06:12:01;1.60;;;0.32;;
71106;SDS011;58763;47.982;11.516;2023-04-24T06:14:27;4.03;;;0.32;;
71106;SDS011;58763;47.982;11.516;2023-04-24T06:16:53;0.75;;;0.30;;
71106;SDS011;58763;47.982;11.516;2023-04-24T06:19:18;0.60;;;0.30;;
71106;SDS011;58763;47.982;11.516;2023-04-24T06:21:49;0.63;;;0.38;;
71106;SDS011;58763;47.982;11.516;2023-04-24T06:24:16;1.30;;;0.40;;
71106;SDS011;58763;47.982;11.516;2023-04-24T06:26:41;1.00;;;0.30;;
71106;SDS011;58763;47.982;11.516;2023-04-24T06:29:07;0.43;;;0.25;;
71106;SDS011;58763;47.982;11.516;2023-04-24T06:31:33;1.17;;;0.30;;
71106;SDS011;58763;47.982;11.516;2023-04-24T06:34:02;0.55;;;0.30;;
71106;SDS011;58763;47.982;11.516;2023-04-24T06:36:28;0.82;;;0.30;;
71106;SDS011;58763;47.982;11.516;2023-04-24T06:38:53;1.73;;;0.30;;
71106;SDS011;58763;47.982;11.516;2023-04-24T06:41:19;0.93;;;0.40;;
71106;SDS011;58763;47.982;11.516;2023-04-24T06:43:45;0.65;;;0.32;;
71106;SDS011;58763;47.982;11.516;2023-04-24T06:46:10;0.90;;;0.30;;
71106;SDS011;58763;47.982;11.516;2023-04-24T06:48:37;0.88;;;0.30;;
71106;SDS011;58763;47.982;11.516;2023-04-24T06:51:02;1.20;;;0.30;;
71106;SDS011;58763;47.982;11.516;2023-04-24T06:53:28;1.23;;;0.30;;
71106;SDS011;58763;47.982;11.516;2023-04-24T06:55:54;0.93;;;0.35;;
71106;SDS011;58763;47.982;11.516;2023-04-24T06:58:20;0.65;;;0.30;;
71106;SDS011;58763;47.982;11.516;2023-04-24T07:00:45;0.50;;;0.20;;
71106;SDS011;58763;47.982;11.516;2023-04-24T07:03:11;0.80;;;0.30;;
71106;SDS011;58763;47.982;11.516;2023-04-24T07:05:36;2.17;;;0.38;;
71106;SDS011;58763;47.982;11.516;2023-04-24T07:08:03;2.25;;;0.30;;
71106;SDS011;58763;47.982;11.516;2023-04-24T07:10:29;0.65;;;0.20;;
71106;SDS011;58763;47.982;11.516;2023-04-24T07:12:55;0.60;;;0.28;;
71106;SDS011;58763;47.982;11.516;2023-04-24T07:15:21;1.05;;;0.40;;
71106;SDS011;58763;47.982;11.516;2023-04-24T07:17:48;0.63;;;0.20;;
71106;SDS011;58763;47.982;11.516;2023-04-24T07:20:13;0.40;;;0.20;;
71106;SDS011;58763;47.982;11.516;2023-04-24T07:22:40;0.52;;;0.20;;
71106;SDS011;58763;47.982;11.516;2023-04-24T07:25:06;0.82;;;0.30;;
71106;SDS011;58763;47.982;11.516;2023-04-24T07:27:32;1.42;;;0.40;;
71106;SDS011;58763;47.982;11.516;2023-04-24T07:29:59;0.50;;;0.30;;
71106;SDS011;58763;47.982;11.516;2023-04-24T07:32:24;0.80;;;0.32;;
71106;SDS011;58763;47.982;11.516;2023-04-24T07:34:50;0.70;;;0.30;;
71106;SDS011;58763;47.982;11.516;2023-04-24T07:37:15;1.40;;;0.40;;
71106;SDS011;58763;47.982;11.516;2023-04-24T07:39:41;2.22;;;0.30;;
71106;SDS011;58763;47.982;11.516;2023-04-24T07:42:06;2.25;;;0.40;;
71106;SDS011;58763;47.982;11.516;2023-04-24T07:44:32;1.08;;;0.38;;
71106;SDS011;58763;47.982;11.516;2023-04-24T07:46:57;1.10;;;0.38;;
71106;SDS011;58763;47.982;11.516;2023-04-24T07:49:23;1.52;;;0.40;;
71106;SDS011;58763;47.982;11.516;2023-04-24T07:51:49;0.50;;;0.20;;
71106;SDS011;58763;47.982;11.516;2023-04-24T07:54:14;0.60;;;0.30;;
71106;SDS011;58763;47.982;11.516;2023-04-24T07:56:40;1.02;;;0.30;;
71106;SDS011;58763;47.982;11.516;2023-04-24T07:59:08;1.00;;;0.20;;
71106;SDS011;58763;47.982;11.516;2023-04-24T08:01:35;0.75;;;0.30;;
71106;SDS011;58763;47.982;11.516;2023-04-24T08:04:01;0.88;;;0.40;;
71106;SDS011;58763;47.982;11.516;2023-04-24T08:06:27;0.65;;;0.30;;
71106;SDS011;58763;47.982;11.516;2023-04-24T08:08:57;0.70;;;0.40;;
71106;SDS011;58763;47.982;11.516;2023-04-24T08:11:23;1.27;;;0.40;;
71106;SDS011;58763;47.982;11.516;2023-04-24T08:13:49;1.80;;;0.40;;
71106;SDS011;58763;47.982;11.516;2023-04-24T08:16:15;0.43;;;0.30;;
71106;SDS011;58763;47.982;11.516;2023-04-24T08:18:48;0.93;;;0.32;;
71106;SDS011;58763;47.982;11.516;2023-04-24T08:21:22;0.90;;;0.38;;
71106;SDS011;58763;47.982;11.516;2023-04-24T08:23:50;0.65;;;0.30;;
71106;SDS011;58763;47.982;11.516;2023-04-24T08:26:16;0.65;;;0.30;;
71106;SDS011;58763;47.982;11.516;2023-04-24T08:28:42;0.73;;;0.30;;
71106;SDS011;58763;47.982;11.516;2023-04-24T08:31:08;0.50;;;0.30;;
71106;SDS011;58763;47.982;11.516;2023-04-24T08:33:34;0.90;;;0.40;;
71106;SDS011;58763;47.982;11.516;2023-04-24T08:36:01;1.52;;;0.30;;
71106;SDS011;58763;47.982;11.516;2023-04-24T08:38:28;0.65;;;0.30;;
71106;SDS011;58763;47.982;11.516;2023-04-24T08:40:55;1.15;;;0.50;;
71106;SDS011;58763;47.982;11.516;2023-04-24T08:43:23;1.00;;;0.47;;
71106;SDS011;58763;47.982;11.516;2023-04-24T08:45:49;1.50;;;0.50;;
71106;SDS011;58763;47.982;11.516;2023-04-24T08:48:15;1.63;;;0.50;;
71106;SDS011;58763;47.982;11.516;2023-04-24T08:50:42;1.10;;;0.52;;
71106;SDS011;58763;47.982;11.516;2023-04-24T08:53:09;1.73;;;0.80;;
71106;SDS011;58763;47.982;11.516;2023-04-24T08:55:37;1.70;;;0.70;;
71106;SDS011;58763;47.982;11.516;2023-04-24T08:58:03;2.05;;;0.80;;
71106;SDS011;58763;47.982;11.516;2023-04-24T09:00:29;1.70;;;0.73;;
71106;SDS011;58763;47.982;11.516;2023-04-24T09:02:55;1.63;;;0.70;;
71106;SDS011;58763;47.982;11.516;2023-04-24T09:05:22;7.43;;;2.45;;
71106;SDS011;58763;47.982;11.516;2023-04-24T09:07:54;3.58;;;1.00;;
71106;SDS011;58763;47.982;11.516;2023-04-24T09:10:21;2.97;;;0.77;;
71106;SDS011;58763;47.982;11.516;2023-04-24T09:12:49;3.15;;;0.70;;
71106;SDS011;58763;47.982;11.516;2023-04-24T09:15:15;1.00;;;0.57;;
71106;SDS011;58763;47.982;11.516;2023-04-24T09:17:42;1.63;;;0.68;;
71106;SDS011;58763;47.982;11.516;2023-04-24T09:20:08;2.65;;;0.70;;
71106;SDS011;58763;47.982;11.516;2023-04-24T09:22:34;1.15;;;0.50;;
71106;SDS011;58763;47.982;11.516;2023-04-24T09:25:03;2.78;;;0.80;;
71106;SDS011;58763;47.982;11.516;2023-04-24T09:27:32;2.30;;;0.80;;
71106;SDS011;58763;47.982;11.516;2023-04-24T09:29:58;1.52;;;0.70;;
71106;SDS011;58763;47.982;11.516;2023-04-24T09:32:24;1.52;;;0.50;;
71106;SDS011;58763;47.982;11.516;2023-04-24T09:37:37;1.63;;;0.70;;
71106;SDS011;58763;47.982;11.516;2023-04-24T09:42:46;3.72;;;0.85;;
71106;SDS011;58763;47.982;11.516;2023-04-24T09:45:18;1.48;;;0.70;;
71106;SDS011;58763;47.982;11.516;2023-04-24T09:47:44;2.97;;;0.98;;
71106;SDS011;58763;47.982;11.516;2023-04-24T09:52:41;4.00;;;1.10;;
71106;SDS011;58763;47.982;11.516;2023-04-24T09:55:16;2.35;;;1.00;;
71106;SDS011;58763;47.982;11.516;2023-04-24T09:57:47;2.58;;;1.00;;
71106;SDS011;58763;47.982;11.516;2023-04-24T10:00:17;3.45;;;1.00;;
71106;SDS011;58763;47.982;11.516;2023-04-24T10:02:54;2.42;;;0.80;;
71106;SDS011;58763;47.982;11.516;2023-04-24T10:05:30;2.27;;;0.80;;
71106;SDS011;58763;47.982;11.516;2023-04-24T10:08:01;2.13;;;1.00;;
71106;SDS011;58763;47.982;11.516;2023-04-24T10:10:31;3.58;;;0.80;;
71106;SDS011;58763;47.982;11.516;2023-04-24T10:12:58;1.85;;;0.85;;
71106;SDS011;58763;47.982;11.516;2023-04-24T10:15:24;2.75;;;0.90;;
71106;SDS011;58763;47.982;11.516;2023-04-24T10:17:52;3.10;;;1.20;;
71106;SDS011;58763;47.982;11.516;2023-04-24T10:20:22;2.10;;;0.90;;
71106;SDS011;58763;47.982;11.516;2023-04-24T10:22:50;3.00;;;0.70;;
71106;SDS011;58763;47.982;11.516;2023-04-24T10:25:19;2.38;;;1.10;;
71106;SDS011;58763;47.982;11.516;2023-04-24T10:27:46;2.53;;;0.90;;
71106;SDS011;58763;47.982;11.516;2023-04-24T10:30:12;1.92;;;0.90;;
71106;SDS011;58763;47.982;11.516;2023-04-24T10:32:39;2.15;;;1.00;;
71106;SDS011;58763;47.982;11.516;2023-04-24T10:35:06;2.25;;;1.00;;
71106;SDS011;58763;47.982;11.516;2023-04-24T10:37:44;1.80;;;0.82;;
71106;SDS011;58763;47.982;11.516;2023-04-24T10:40:16;3.42;;;1.10;;
71106;SDS011;58763;47.982;11.516;2023-04-24T10:42:43;2.80;;;0.98;;
71106;SDS011;58763;47.982;11.516;2023-04-24T10:45:17;2.63;;;1.00;;
71106;SDS011;58763;47.982;11.516;2023-04-24T10:47:52;2.50;;;0.98;;
71106;SDS011;58763;47.982;11.516;2023-04-24T10:50:27;3.00;;;0.95;;
71106;SDS011;58763;47.982;11.516;2023-04-24T10:52:55;3.50;;;0.93;;
71106;SDS011;58763;47.982;11.516;2023-04-24T10:55:50;2.33;;;0.50;;
71106;SDS011;58763;47.982;11.516;2023-04-24T10:58:23;1.40;;;0.60;;
71106;SDS011;58763;47.982;11.516;2023-04-24T11:00:57;1.73;;;0.60;;
71106;SDS011;58763;47.982;11.516;2023-04-24T11:03:25;1.67;;;0.50;;
71106;SDS011;58763;47.982;11.516;2023-04-24T11:06:07;1.42;;;0.63;;
71106;SDS011;58763;47.982;11.516;2023-04-24T11:08:44;1.98;;;0.40;;
71106;SDS011;58763;47.982;11.516;2023-04-24T11:11:11;1.70;;;0.60;;
71106;SDS011;58763;47.982;11.516;2023-04-24T11:19:05;2.65;;;0.80;;
71106;SDS011;58763;47.982;11.516;2023-04-24T11:32:25;1.67;;;0.60;;
71106;SDS011;58763;47.982;11.516;2023-04-24T11:37:34;2.47;;;0.90;;
71106;SDS011;58763;47.982;11.516;2023-04-24T11:40:01;2.10;;;0.70;;
71106;SDS011;58763;47.982;11.516;2023-04-24T11:42:29;2.22;;;0.80;;
71106;SDS011;58763;47.982;11.516;2023-04-24T11:44:59;3.67;;;0.90;;
71106;SDS011;58763;47.982;11.516;2023-04-24T11:47:28;2.75;;;0.93;;
71106;SDS011;58763;47.982;11.516;2023-04-24T11:49:55;3.92;;;0.90;;
71106;SDS011;58763;47.982;11.516;2023-04-24T11:52:20;2.38;;;0.90;;
71106;SDS011;58763;47.982;11.516;2023-04-24T11:54:47;1.63;;;0.80;;
71106;SDS011;58763;47.982;11.516;2023-04-24T11:57:15;2.03;;;0.90;;
71106;SDS011;58763;47.982;11.516;2023-04-24T11:59:43;2.92;;;1.05;;
71106;SDS011;58763;47.982;11.516;2023-04-24T12:02:10;2.65;;;1.02;;
71106;SDS011;58763;47.982;11.516;2023-04-24T12:04:45;1.67;;;0.63;;
71106;SDS011;58763;47.982;11.516;2023-04-24T12:07:10;2.10;;;1.05;;
71106;SDS011;58763;47.982;11.516;2023-04-24T12:12:08;2.28;;;1.00;;
71106;SDS011;58763;47.982;11.516;2023-04-24T12:14:41;1.80;;;0.75;;
71106;SDS011;58763;47.982;11.516;2023-04-24T12:17:28;2.38;;;1.10;;
71106;SDS011;58763;47.982;11.516;2023-04-24T12:20:00;2.65;;;0.75;;
71106;SDS011;58763;47.982;11.516;2023-04-24T12:22:28;3.22;;;1.10;;
71106;SDS011;58763;47.982;11.516;2023-04-24T12:25:09;2.17;;;0.90;;
71106;SDS011;58763;47.982;11.516;2023-04-24T12:27:35;3.63;;;1.45;;
71106;SDS011;58763;47.982;11.516;2023-04-24T12:30:02;3.33;;;1.45;;
71106;SDS011;58763;47.982;11.516;2023-04-24T12:32:29;3.08;;;1.45;;
71106;SDS011;58763;47.982;11.516;2023-04-24T12:34:55;5.18;;;1.52;;
71106;SDS011;58763;47.982;11.516;2023-04-24T12:37:24;3.30;;;1.38;;
71106;SDS011;58763;47.982;11.516;2023-04-24T12:40:04;4.30;;;1.63;;
71106;SDS011;58763;47.982;11.516;2023-04-24T12:42:50;4.88;;;1.75;;
71106;SDS011;58763;47.982;11.516;2023-04-24T12:45:17;4.07;;;1.45;;
71106;SDS011;58763;47.982;11.516;2023-04-24T12:47:43;4.10;;;1.73;;
71106;SDS011;58763;47.982;11.516;2023-04-24T12:50:10;4.65;;;1.77;;
71106;SDS011;58763;47.982;11.516;2023-04-24T12:52:37;2.80;;;1.40;;
71106;SDS011;58763;47.982;11.516;2023-04-24T12:55:04;2.50;;;1.10;;
71106;SDS011;58763;47.982;11.516;2023-04-24T12:57:33;3.00;;;1.10;;
71106;SDS011;58763;47.982;11.516;2023-04-24T12:59:59;3.08;;;1.00;;
71106;SDS011;58763;47.982;11.516;2023-04-24T13:02:26;2.70;;;1.13;;
71106;SDS011;58763;47.982;11.516;2023-04-24T13:04:54;3.28;;;1.35;;
71106;SDS011;58763;47.982;11.516;2023-04-24T13:07:20;2.75;;;1.25;;
71106;SDS011;58763;47.982;11.516;2023-04-24T13:09:47;2.20;;;1.08;;
71106;SDS011;58763;47.982;11.516;2023-04-24T13:12:14;2.53;;;1.25;;
71106;SDS011;58763;47.982;11.516;2023-04-24T13:14:40;3.33;;;1.10;;
71106;SDS011;58763;47.982;11.516;2023-04-24T13:17:05;3.53;;;1.35;;
71106;SDS011;58763;47.982;11.516;2023-04-24T13:19:35;4.25;;;1.42;;
71106;SDS011;58763;47.982;11.516;2023-04-24T13:22:04;3.15;;;1.30;;
71106;SDS011;58763;47.982;11.516;2023-04-24T13:24:30;2.95;;;1.40;;
71106;SDS011;58763;47.982;11.516;2023-04-24T13:26:57;4.57;;;1.33;;
71106;SDS011;58763;47.982;11.516;2023-04-24T13:29:23;4.28;;;1.33;;
71106;SDS011;58763;47.982;11.516;2023-04-24T13:31:52;4.25;;;1.23;;
71106;SDS011;58763;47.982;11.516;2023-04-24T13:34:22;3.50;;;1.30;;
71106;SDS011;58763;47.982;11.516;2023-04-24T13:36:49;2.80;;;1.30;;
71106;SDS011;58763;47.982;11.516;2023-04-24T13:39:16;3.83;;;1.30;;
71106;SDS011;58763;47.982;11.516;2023-04-24T13:41:42;5.10;;;1.40;;
71106;SDS011;58763;47.982;11.516;2023-04-24T13:44:07;4.85;;;1.67;;
71106;SDS011;58763;47.982;11.516;2023-04-24T13:46:33;3.28;;;1.48;;
71106;SDS011;58763;47.982;11.516;2023-04-24T13:48:59;4.03;;;1.60;;
71106;SDS011;58763;47.982;11.516;2023-04-24T13:51:25;4.20;;;1.60;;
71106;SDS011;58763;47.982;11.516;2023-04-24T13:53:54;3.65;;;1.77;;
71106;SDS011;58763;47.982;11.516;2023-04-24T13:56:20;3.50;;;1.65;;
71106;SDS011;58763;47.982;11.516;2023-04-24T13:58:46;3.20;;;1.60;;
71106;SDS011;58763;47.982;11.516;2023-04-24T14:01:11;4.22;;;1.75;;
71106;SDS011;58763;47.982;11.516;2023-04-24T14:03:37;3.75;;;1.75;;
71106;SDS011;58763;47.982;11.516;2023-04-24T14:06:03;4.65;;;1.83;;
71106;SDS011;58763;47.982;11.516;2023-04-24T14:08:28;5.55;;;2.03;;
71106;SDS011;58763;47.982;11.516;2023-04-24T14:10:53;2.65;;;1.45;;
71106;SDS011;58763;47.982;11.516;2023-04-24T14:13:19;5.00;;;1.90;;
71106;SDS011;58763;47.982;11.516;2023-04-24T14:15:45;5.63;;;2.85;;
71106;SDS011;58763;47.982;11.516;2023-04-24T14:18:11;5.57;;;1.88;;
71106;SDS011;58763;47.982;11.516;2023-04-24T14:20:37;3.53;;;1.70;;
71106;SDS011;58763;47.982;11.516;2023-04-24T14:23:02;3.38;;;1.40;;
71106;SDS011;58763;47.982;11.516;2023-04-24T14:25:29;3.60;;;1.70;;
71106;SDS011;58763;47.982;11.516;2023-04-24T14:27:55;3.25;;;1.45;;
71106;SDS011;58763;47.982;11.516;2023-04-24T14:30:20;4.63;;;1.50;;
71106;SDS011;58763;47.982;11.516;2023-04-24T14:32:46;3.50;;;1.40;;
71106;SDS011;58763;47.982;11.516;2023-04-24T14:35:12;3.13;;;1.40;;
71106;SDS011;58763;47.982;11.516;2023-04-24T14:37:38;2.95;;;1.50;;
71106;SDS011;58763;47.982;11.516;2023-04-24T14:40:06;2.78;;;1.30;;
71106;SDS011;58763;47.982;11.516;2023-04-24T14:42:33;3.10;;;1.50;;
71106;SDS011;58763;47.982;11.516;2023-04-24T14:44:59;3.80;;;1.42;;
71106;SDS011;58763;47.982;11.516;2023-04-24T14:47:25;6.55;;;1.52;;
71106;SDS011;58763;47.982;11.516;2023-04-24T14:49:50;3.00;;;1.42;;
71106;SDS011;58763;47.982;11.516;2023-04-24T14:52:16;2.58;;;1.27;;
71106;SDS011;58763;47.982;11.516;2023-04-24T14:54:42;3.13;;;1.00;;
71106;SDS011;58763;47.982;11.516;2023-04-24T14:57:08;5.25;;;1.67;;
71106;SDS011;58763;47.982;11.516;2023-04-24T14:59:33;5.22;;;1.30;;
71106;SDS011;58763;47.982;11.516;2023-04-24T15:01:59;2.83;;;1.45;;